Driftwood, Washington
Current Conditions -  °F | °C
As of 9:58 AM on Thursday 30 Oct 2014 (Local Time) from KTCM Reporting Station
Broken Clouds Broken Clouds  
Wind Chill: 53°   Ceiling: 9000
Heat Index: 53°   Visibility: 10mi
Dew Point: 53°   Wind: 2mph
Humidity: 99%   Direction: 350°N
Pressure: 29.86"   Gusts: NA
Location:  47.1874°N, 122.164°W
Report Text: KTCM 301658Z AUTO 35002KT 10SM SCT070 BKN090 BKN130 12/12 A2986 RMK AO2 SLP116 P0003 T01190118
Loading
Personal Weather Stations






























Interactive Weather Map
Tropical Storm Tracking
New forecast layout! Learn more

10-Day Weather Forecast

Advertisements
Track Severe Weather on mobile